Crew | Aerofun Virtual



 METAR AND TAF INFORMATION
METAR FOR LEVD
ADDS - METARS form results

(1548 UTC 24 May 2019)
Data provider http://aviationweather.gov/metar/data/
 
METAR text: LEVD 241530Z 07012KT 030V110 CAVOK 19/03 Q1018
Conditions at: LEVD (VALLADOLID(MIL/C, ES) observed 1530 UTC 24 May 2019
Temperature: 19.0°C (66°F)
Dewpoint: 3.0°C (37°F) [RH = 34%]
Pressure (altimeter): 30.06 inches Hg (1018.0 mb)
Winds: from the ENE (70 degrees) at 14 MPH (12 knots; 6.2 m/s)
Visibility: 6 or more miles (10+ km)
Ceiling: ceiling and visibility are OK
Clouds: unknown
Weather: no significant weather observed at this time

METAR text: LEVD 241500Z 05011KT 360V080 CAVOK 19/03 Q1018
Conditions at: LEVD (VALLADOLID(MIL/C, ES) observed 1500 UTC 24 May 2019
Temperature: 19.0°C (66°F)
Dewpoint: 3.0°C (37°F) [RH = 34%]
Pressure (altimeter): 30.06 inches Hg (1018.0 mb)
Winds: from the NE (50 degrees) at 13 MPH (11 knots; 5.7 m/s)
Visibility: 6 or more miles (10+ km)
Ceiling: ceiling and visibility are OK
Clouds: unknown
Weather: no significant weather observed at this time

Forecast for: LEVD (VALLADOLID(MIL/C, ES)
Text: TAF LEVD 241100Z 2412/2512 05013KT 9999 SCT030 TX21/2415Z TN07/2506Z
Forecast period: 1200 UTC 24 May 2019 to 1200 UTC 25 May 2019
Forecast type: FROM: standard forecast or significant change
Winds: from the NE (50 degrees) at 15 MPH (13 knots; 6.7 m/s)
Visibility: 6 or more miles 10+ km)
Ceiling: at least 12,000 feet AGL
Clouds: scattered clouds at 3000 feet AGL
Weather: no significant weather forecast for this period
Text: PROB40
Forecast period: 1200 to 2100 UTC 24 May 2019
Forecast type: TEMPORARY: The following changes expected for less than half the time period
Winds: from the NNE (20 degrees) at 21 MPH (18 knots; 9.3 m/s)
gusting to 32 MPH (28 knots; 14.4 m/s)
Visibility: missing
Ceiling: unknown
Clouds: missing
Weather: no significant weather forecast for this period

 AIRPORT MAP

 RUNWAY INFORMATION
Runway 05 Runway length 9843 ft Runway width 197 ft
Runway elevation 2768 ft Runway displaced threshold 0 ft Runway heading 45
Runway 23 Runway length 9843 ft Runway width 197 ft
Runway elevation 2775 ft Runway displaced threshold 0 ft Runway heading 225
Runway 15 Runway length 2976 ft Runway width 197 ft
Runway elevation 2770 ft Runway displaced threshold 0 ft Runway heading 144
Runway 33 Runway length 2976 ft Runway width 197 ft
Runway elevation 2771 ft Runway displaced threshold 0 ft Runway heading 324

 AIRPORT FREQUENCIES
Type TWR Name TWR Frequency 122.2 MHZ

 AIRPORT NEAR NAVIGATION AIDS
Type TACAN Name Valladolid Frequency 108200 KHZ
Type NDB Name Valladolid Frequency 342 KHZ